sensor_id;sensor_type;location;lat;lon;timestamp;P1;durP1;ratioP1;P2;durP2;ratioP2
20140;SDS011;10231;47.702;9.826;2023-03-20T00:01:13;2.13;;;2.03;;
20140;SDS011;10231;47.702;9.826;2023-03-20T00:03:50;1.97;;;1.80;;
20140;SDS011;10231;47.702;9.826;2023-03-20T00:06:20;2.27;;;2.17;;
20140;SDS011;10231;47.702;9.826;2023-03-20T00:08:51;4.77;;;2.63;;
20140;SDS011;10231;47.702;9.826;2023-03-20T00:11:31;2.47;;;2.27;;
20140;SDS011;10231;47.702;9.826;2023-03-20T00:13:59;2.30;;;2.20;;
20140;SDS011;10231;47.702;9.826;2023-03-20T00:16:36;2.60;;;2.50;;
20140;SDS011;10231;47.702;9.826;2023-03-20T00:19:09;2.40;;;2.30;;
20140;SDS011;10231;47.702;9.826;2023-03-20T00:21:41;2.67;;;2.57;;
20140;SDS011;10231;47.702;9.826;2023-03-20T00:24:12;2.60;;;2.50;;
20140;SDS011;10231;47.702;9.826;2023-03-20T00:26:38;2.37;;;2.27;;
20140;SDS011;10231;47.702;9.826;2023-03-20T00:29:05;3.03;;;2.83;;
20140;SDS011;10231;47.702;9.826;2023-03-20T00:31:35;2.70;;;2.60;;
20140;SDS011;10231;47.702;9.826;2023-03-20T00:34:04;2.53;;;2.33;;
20140;SDS011;10231;47.702;9.826;2023-03-20T00:36:31;2.07;;;2.00;;
20140;SDS011;10231;47.702;9.826;2023-03-20T00:38:57;2.33;;;2.23;;
20140;SDS011;10231;47.702;9.826;2023-03-20T00:41:26;2.37;;;2.17;;
20140;SDS011;10231;47.702;9.826;2023-03-20T00:43:58;2.80;;;2.67;;
20140;SDS011;10231;47.702;9.826;2023-03-20T00:46:34;2.60;;;2.50;;
20140;SDS011;10231;47.702;9.826;2023-03-20T00:49:02;3.03;;;2.87;;
20140;SDS011;10231;47.702;9.826;2023-03-20T00:51:28;3.33;;;3.13;;
20140;SDS011;10231;47.702;9.826;2023-03-20T00:53:53;2.80;;;2.70;;
20140;SDS011;10231;47.702;9.826;2023-03-20T00:58:47;3.50;;;3.30;;
20140;SDS011;10231;47.702;9.826;2023-03-20T01:01:13;3.07;;;2.90;;
20140;SDS011;10231;47.702;9.826;2023-03-20T01:03:38;3.40;;;3.20;;
20140;SDS011;10231;47.702;9.826;2023-03-20T01:06:04;3.20;;;3.00;;
20140;SDS011;10231;47.702;9.826;2023-03-20T01:08:30;3.20;;;3.00;;
20140;SDS011;10231;47.702;9.826;2023-03-20T01:10:56;3.20;;;3.00;;
20140;SDS011;10231;47.702;9.826;2023-03-20T01:13:24;3.07;;;2.90;;
20140;SDS011;10231;47.702;9.826;2023-03-20T01:15:51;2.83;;;2.73;;
20140;SDS011;10231;47.702;9.826;2023-03-20T01:18:19;3.50;;;3.30;;
20140;SDS011;10231;47.702;9.826;2023-03-20T01:20:46;3.70;;;3.50;;
20140;SDS011;10231;47.702;9.826;2023-03-20T01:23:13;3.87;;;3.67;;
20140;SDS011;10231;47.702;9.826;2023-03-20T01:25:39;3.63;;;3.40;;
20140;SDS011;10231;47.702;9.826;2023-03-20T01:28:38;3.87;;;3.67;;
20140;SDS011;10231;47.702;9.826;2023-03-20T01:30:57;4.60;;;4.30;;
20140;SDS011;10231;47.702;9.826;2023-03-20T01:33:24;4.90;;;4.60;;
20140;SDS011;10231;47.702;9.826;2023-03-20T01:35:50;4.70;;;4.40;;
20140;SDS011;10231;47.702;9.826;2023-03-20T01:38:20;4.50;;;4.10;;
20140;SDS011;10231;47.702;9.826;2023-03-20T01:40:50;4.67;;;4.40;;
20140;SDS011;10231;47.702;9.826;2023-03-20T01:43:30;4.77;;;4.37;;
20140;SDS011;10231;47.702;9.826;2023-03-20T01:51:13;4.17;;;3.90;;
20140;SDS011;10231;47.702;9.826;2023-03-20T01:53:40;4.57;;;4.30;;
20140;SDS011;10231;47.702;9.826;2023-03-20T01:56:06;4.57;;;4.27;;
20140;SDS011;10231;47.702;9.826;2023-03-20T01:58:33;4.80;;;4.50;;
20140;SDS011;10231;47.702;9.826;2023-03-20T02:01:03;4.40;;;4.10;;
20140;SDS011;10231;47.702;9.826;2023-03-20T02:03:30;4.87;;;4.47;;
20140;SDS011;10231;47.702;9.826;2023-03-20T02:05:57;4.50;;;4.20;;
20140;SDS011;10231;47.702;9.826;2023-03-20T02:08:24;5.17;;;4.70;;
20140;SDS011;10231;47.702;9.826;2023-03-20T02:10:52;4.30;;;4.00;;
20140;SDS011;10231;47.702;9.826;2023-03-20T02:13:20;4.90;;;4.50;;
20140;SDS011;10231;47.702;9.826;2023-03-20T02:15:53;3.70;;;3.40;;
20140;SDS011;10231;47.702;9.826;2023-03-20T02:18:34;2.23;;;2.13;;
20140;SDS011;10231;47.702;9.826;2023-03-20T02:21:18;3.13;;;3.03;;
20140;SDS011;10231;47.702;9.826;2023-03-20T02:30:30;3.03;;;2.83;;
20140;SDS011;10231;47.702;9.826;2023-03-20T02:33:14;3.03;;;2.87;;
20140;SDS011;10231;47.702;9.826;2023-03-20T02:36:27;3.23;;;3.03;;
20140;SDS011;10231;47.702;9.826;2023-03-20T02:47:12;3.53;;;3.33;;
20140;SDS011;10231;47.702;9.826;2023-03-20T02:55:17;2.83;;;2.73;;
20140;SDS011;10231;47.702;9.826;2023-03-20T02:57:53;3.00;;;2.80;;
20140;SDS011;10231;47.702;9.826;2023-03-20T03:00:28;2.97;;;2.67;;
20140;SDS011;10231;47.702;9.826;2023-03-20T03:05:49;4.07;;;3.77;;
20140;SDS011;10231;47.702;9.826;2023-03-20T03:08:36;3.03;;;2.87;;
20140;SDS011;10231;47.702;9.826;2023-03-20T03:11:06;2.77;;;2.67;;
20140;SDS011;10231;47.702;9.826;2023-03-20T03:13:34;3.33;;;3.03;;
20140;SDS011;10231;47.702;9.826;2023-03-20T03:16:20;3.73;;;3.53;;
20140;SDS011;10231;47.702;9.826;2023-03-20T03:18:51;3.47;;;3.27;;
20140;SDS011;10231;47.702;9.826;2023-03-20T03:21:28;3.50;;;3.30;;
20140;SDS011;10231;47.702;9.826;2023-03-20T03:23:55;3.40;;;3.17;;
20140;SDS011;10231;47.702;9.826;2023-03-20T03:26:24;4.00;;;3.60;;
20140;SDS011;10231;47.702;9.826;2023-03-20T03:29:12;3.33;;;3.13;;
20140;SDS011;10231;47.702;9.826;2023-03-20T03:31:41;3.13;;;2.93;;
20140;SDS011;10231;47.702;9.826;2023-03-20T03:34:10;2.50;;;2.40;;
20140;SDS011;10231;47.702;9.826;2023-03-20T03:50:28;2.27;;;2.17;;
20140;SDS011;10231;47.702;9.826;2023-03-20T03:53:03;2.40;;;2.30;;
20140;SDS011;10231;47.702;9.826;2023-03-20T03:55:35;2.23;;;2.03;;
20140;SDS011;10231;47.702;9.826;2023-03-20T03:58:16;2.93;;;2.50;;
20140;SDS011;10231;47.702;9.826;2023-03-20T04:00:46;2.20;;;2.10;;
20140;SDS011;10231;47.702;9.826;2023-03-20T04:03:14;2.30;;;2.20;;
20140;SDS011;10231;47.702;9.826;2023-03-20T04:05:41;2.30;;;2.20;;
20140;SDS011;10231;47.702;9.826;2023-03-20T04:08:09;2.43;;;2.33;;
20140;SDS011;10231;47.702;9.826;2023-03-20T04:10:35;2.80;;;2.70;;
20140;SDS011;10231;47.702;9.826;2023-03-20T04:13:01;2.90;;;2.70;;
20140;SDS011;10231;47.702;9.826;2023-03-20T04:15:26;4.27;;;3.87;;
20140;SDS011;10231;47.702;9.826;2023-03-20T04:17:53;3.70;;;3.40;;
20140;SDS011;10231;47.702;9.826;2023-03-20T04:20:18;3.13;;;2.93;;
20140;SDS011;10231;47.702;9.826;2023-03-20T04:22:44;3.10;;;2.90;;
20140;SDS011;10231;47.702;9.826;2023-03-20T04:25:15;2.90;;;2.80;;
20140;SDS011;10231;47.702;9.826;2023-03-20T04:27:43;5.63;;;3.73;;
20140;SDS011;10231;47.702;9.826;2023-03-20T04:30:09;3.30;;;3.10;;
20140;SDS011;10231;47.702;9.826;2023-03-20T04:32:35;3.87;;;3.67;;
20140;SDS011;10231;47.702;9.826;2023-03-20T04:35:00;3.10;;;2.90;;
20140;SDS011;10231;47.702;9.826;2023-03-20T04:37:26;3.10;;;2.90;;
20140;SDS011;10231;47.702;9.826;2023-03-20T04:39:51;3.90;;;3.60;;
20140;SDS011;10231;47.702;9.826;2023-03-20T04:42:17;3.50;;;3.30;;
20140;SDS011;10231;47.702;9.826;2023-03-20T04:44:42;3.80;;;3.50;;
20140;SDS011;10231;47.702;9.826;2023-03-20T04:47:08;4.57;;;4.27;;
20140;SDS011;10231;47.702;9.826;2023-03-20T04:49:34;4.30;;;4.00;;
20140;SDS011;10231;47.702;9.826;2023-03-20T04:51:59;3.93;;;3.60;;
20140;SDS011;10231;47.702;9.826;2023-03-20T04:54:25;4.00;;;3.60;;
20140;SDS011;10231;47.702;9.826;2023-03-20T04:56:50;3.77;;;3.50;;
20140;SDS011;10231;47.702;9.826;2023-03-20T04:59:16;3.27;;;3.07;;
20140;SDS011;10231;47.702;9.826;2023-03-20T05:01:42;3.60;;;3.40;;
20140;SDS011;10231;47.702;9.826;2023-03-20T05:04:07;3.67;;;3.47;;
20140;SDS011;10231;47.702;9.826;2023-03-20T05:06:33;4.47;;;3.77;;
20140;SDS011;10231;47.702;9.826;2023-03-20T05:08:59;4.30;;;4.00;;
20140;SDS011;10231;47.702;9.826;2023-03-20T05:11:25;4.17;;;3.87;;
20140;SDS011;10231;47.702;9.826;2023-03-20T05:13:51;4.17;;;3.77;;
20140;SDS011;10231;47.702;9.826;2023-03-20T05:16:17;4.37;;;4.03;;
20140;SDS011;10231;47.702;9.826;2023-03-20T05:18:42;4.20;;;3.90;;
20140;SDS011;10231;47.702;9.826;2023-03-20T05:21:08;4.77;;;4.37;;
20140;SDS011;10231;47.702;9.826;2023-03-20T05:23:34;4.73;;;4.40;;
20140;SDS011;10231;47.702;9.826;2023-03-20T05:26:00;6.03;;;5.00;;
20140;SDS011;10231;47.702;9.826;2023-03-20T05:28:26;5.90;;;5.40;;
20140;SDS011;10231;47.702;9.826;2023-03-20T05:30:52;5.90;;;5.30;;
20140;SDS011;10231;47.702;9.826;2023-03-20T05:33:17;4.17;;;3.87;;
20140;SDS011;10231;47.702;9.826;2023-03-20T05:35:43;4.93;;;4.53;;
20140;SDS011;10231;47.702;9.826;2023-03-20T05:38:09;4.27;;;3.90;;
20140;SDS011;10231;47.702;9.826;2023-03-20T05:40:35;4.57;;;4.17;;
20140;SDS011;10231;47.702;9.826;2023-03-20T05:43:00;4.93;;;4.43;;
20140;SDS011;10231;47.702;9.826;2023-03-20T05:45:26;4.80;;;4.50;;
20140;SDS011;10231;47.702;9.826;2023-03-20T05:47:51;5.73;;;5.23;;
20140;SDS011;10231;47.702;9.826;2023-03-20T05:50:17;6.50;;;5.90;;
20140;SDS011;10231;47.702;9.826;2023-03-20T05:52:45;7.03;;;6.37;;
20140;SDS011;10231;47.702;9.826;2023-03-20T05:55:12;6.40;;;5.77;;
20140;SDS011;10231;47.702;9.826;2023-03-20T05:57:37;6.57;;;5.97;;
20140;SDS011;10231;47.702;9.826;2023-03-20T06:00:03;6.10;;;5.50;;
20140;SDS011;10231;47.702;9.826;2023-03-20T06:02:29;5.23;;;4.83;;
20140;SDS011;10231;47.702;9.826;2023-03-20T06:04:55;6.80;;;5.80;;
20140;SDS011;10231;47.702;9.826;2023-03-20T06:07:20;5.80;;;5.13;;
20140;SDS011;10231;47.702;9.826;2023-03-20T06:09:46;6.03;;;5.53;;
20140;SDS011;10231;47.702;9.826;2023-03-20T06:12:11;7.40;;;5.90;;
20140;SDS011;10231;47.702;9.826;2023-03-20T06:14:37;6.77;;;6.17;;
20140;SDS011;10231;47.702;9.826;2023-03-20T06:17:02;7.63;;;6.90;;
20140;SDS011;10231;47.702;9.826;2023-03-20T06:19:28;7.60;;;6.90;;
20140;SDS011;10231;47.702;9.826;2023-03-20T06:21:54;8.33;;;7.47;;
20140;SDS011;10231;47.702;9.826;2023-03-20T06:24:19;8.77;;;8.00;;
20140;SDS011;10231;47.702;9.826;2023-03-20T06:26:45;8.10;;;7.30;;
20140;SDS011;10231;47.702;9.826;2023-03-20T06:29:14;9.70;;;8.70;;
20140;SDS011;10231;47.702;9.826;2023-03-20T06:31:39;8.50;;;7.80;;
20140;SDS011;10231;47.702;9.826;2023-03-20T06:34:05;8.27;;;7.57;;
20140;SDS011;10231;47.702;9.826;2023-03-20T06:36:31;7.40;;;6.80;;
20140;SDS011;10231;47.702;9.826;2023-03-20T06:38:56;7.43;;;6.73;;
20140;SDS011;10231;47.702;9.826;2023-03-20T06:41:22;7.70;;;7.00;;
20140;SDS011;10231;47.702;9.826;2023-03-20T06:43:47;7.57;;;6.93;;
20140;SDS011;10231;47.702;9.826;2023-03-20T06:46:13;9.30;;;7.17;;
20140;SDS011;10231;47.702;9.826;2023-03-20T06:48:38;7.50;;;6.80;;
20140;SDS011;10231;47.702;9.826;2023-03-20T06:51:04;6.70;;;6.20;;
20140;SDS011;10231;47.702;9.826;2023-03-20T06:53:31;7.67;;;6.97;;
20140;SDS011;10231;47.702;9.826;2023-03-20T06:55:57;6.83;;;6.23;;
20140;SDS011;10231;47.702;9.826;2023-03-20T06:58:23;7.77;;;6.97;;
20140;SDS011;10231;47.702;9.826;2023-03-20T07:00:49;7.33;;;6.67;;
20140;SDS011;10231;47.702;9.826;2023-03-20T07:03:15;7.43;;;6.73;;
20140;SDS011;10231;47.702;9.826;2023-03-20T07:05:41;6.83;;;6.23;;
20140;SDS011;10231;47.702;9.826;2023-03-20T07:08:07;7.33;;;6.73;;
20140;SDS011;10231;47.702;9.826;2023-03-20T07:10:34;7.27;;;6.67;;
20140;SDS011;10231;47.702;9.826;2023-03-20T07:13:01;7.13;;;6.53;;
20140;SDS011;10231;47.702;9.826;2023-03-20T07:15:27;8.13;;;7.33;;
20140;SDS011;10231;47.702;9.826;2023-03-20T07:17:53;7.47;;;6.87;;
20140;SDS011;10231;47.702;9.826;2023-03-20T07:20:19;8.00;;;6.20;;
20140;SDS011;10231;47.702;9.826;2023-03-20T07:22:46;6.23;;;5.73;;
20140;SDS011;10231;47.702;9.826;2023-03-20T07:25:12;6.67;;;6.00;;
20140;SDS011;10231;47.702;9.826;2023-03-20T07:27:38;6.53;;;5.93;;
20140;SDS011;10231;47.702;9.826;2023-03-20T07:30:04;6.50;;;6.00;;
20140;SDS011;10231;47.702;9.826;2023-03-20T07:32:30;6.97;;;6.30;;
20140;SDS011;10231;47.702;9.826;2023-03-20T07:34:56;7.33;;;6.63;;
20140;SDS011;10231;47.702;9.826;2023-03-20T07:37:22;8.30;;;6.47;;
20140;SDS011;10231;47.702;9.826;2023-03-20T07:39:48;6.70;;;6.03;;
20140;SDS011;10231;47.702;9.826;2023-03-20T07:42:14;6.70;;;6.10;;
20140;SDS011;10231;47.702;9.826;2023-03-20T07:44:40;6.03;;;5.47;;
20140;SDS011;10231;47.702;9.826;2023-03-20T07:47:06;5.90;;;5.30;;
20140;SDS011;10231;47.702;9.826;2023-03-20T07:49:32;5.70;;;5.20;;
20140;SDS011;10231;47.702;9.826;2023-03-20T07:51:58;7.37;;;5.63;;
20140;SDS011;10231;47.702;9.826;2023-03-20T07:54:24;6.07;;;5.40;;
20140;SDS011;10231;47.702;9.826;2023-03-20T07:56:50;5.60;;;5.10;;
20140;SDS011;10231;47.702;9.826;2023-03-20T07:59:17;7.77;;;5.47;;
20140;SDS011;10231;47.702;9.826;2023-03-20T08:01:42;5.20;;;4.80;;
20140;SDS011;10231;47.702;9.826;2023-03-20T08:04:08;5.23;;;4.73;;
20140;SDS011;10231;47.702;9.826;2023-03-20T08:06:33;4.83;;;4.47;;
20140;SDS011;10231;47.702;9.826;2023-03-20T08:08:59;5.17;;;4.67;;
20140;SDS011;10231;47.702;9.826;2023-03-20T08:11:25;5.07;;;4.57;;
20140;SDS011;10231;47.702;9.826;2023-03-20T08:13:50;5.20;;;4.80;;
20140;SDS011;10231;47.702;9.826;2023-03-20T08:16:16;6.27;;;4.87;;
20140;SDS011;10231;47.702;9.826;2023-03-20T08:18:42;5.27;;;4.87;;
20140;SDS011;10231;47.702;9.826;2023-03-20T08:21:07;6.97;;;5.00;;
20140;SDS011;10231;47.702;9.826;2023-03-20T08:23:33;4.70;;;4.30;;
20140;SDS011;10231;47.702;9.826;2023-03-20T08:25:59;5.33;;;4.90;;
20140;SDS011;10231;47.702;9.826;2023-03-20T08:28:24;4.33;;;4.00;;
20140;SDS011;10231;47.702;9.826;2023-03-20T08:30:50;4.10;;;3.80;;
20140;SDS011;10231;47.702;9.826;2023-03-20T08:33:16;3.93;;;3.63;;
20140;SDS011;10231;47.702;9.826;2023-03-20T08:35:42;3.63;;;3.37;;
20140;SDS011;10231;47.702;9.826;2023-03-20T08:38:09;3.50;;;3.30;;
20140;SDS011;10231;47.702;9.826;2023-03-20T08:40:40;4.10;;;3.90;;
20140;SDS011;10231;47.702;9.826;2023-03-20T08:43:06;4.03;;;3.73;;
20140;SDS011;10231;47.702;9.826;2023-03-20T08:45:32;2.87;;;2.67;;
20140;SDS011;10231;47.702;9.826;2023-03-20T08:47:58;4.33;;;3.93;;
20140;SDS011;10231;47.702;9.826;2023-03-20T08:50:23;3.50;;;3.30;;
20140;SDS011;10231;47.702;9.826;2023-03-20T08:52:49;2.70;;;2.50;;
20140;SDS011;10231;47.702;9.826;2023-03-20T08:55:15;2.53;;;2.43;;
20140;SDS011;10231;47.702;9.826;2023-03-20T08:57:41;2.37;;;2.27;;
20140;SDS011;10231;47.702;9.826;2023-03-20T09:00:07;2.70;;;2.50;;
20140;SDS011;10231;47.702;9.826;2023-03-20T09:02:36;3.23;;;3.03;;
20140;SDS011;10231;47.702;9.826;2023-03-20T09:05:02;2.77;;;2.43;;
20140;SDS011;10231;47.702;9.826;2023-03-20T09:07:28;3.13;;;2.93;;
20140;SDS011;10231;47.702;9.826;2023-03-20T09:09:53;2.90;;;2.70;;
20140;SDS011;10231;47.702;9.826;2023-03-20T09:12:19;2.80;;;2.67;;
20140;SDS011;10231;47.702;9.826;2023-03-20T09:14:45;2.67;;;2.50;;
20140;SDS011;10231;47.702;9.826;2023-03-20T09:17:11;2.60;;;2.40;;
20140;SDS011;10231;47.702;9.826;2023-03-20T09:19:36;2.23;;;2.13;;
20140;SDS011;10231;47.702;9.826;2023-03-20T09:22:04;2.50;;;2.30;;
20140;SDS011;10231;47.702;9.826;2023-03-20T09:24:30;2.33;;;2.13;;
20140;SDS011;10231;47.702;9.826;2023-03-20T09:26:57;2.37;;;2.17;;
20140;SDS011;10231;47.702;9.826;2023-03-20T09:29:22;3.10;;;2.90;;
20140;SDS011;10231;47.702;9.826;2023-03-20T09:31:48;2.73;;;2.37;;
20140;SDS011;10231;47.702;9.826;2023-03-20T09:34:14;2.57;;;2.30;;
20140;SDS011;10231;47.702;9.826;2023-03-20T09:36:39;2.93;;;2.10;;
20140;SDS011;10231;47.702;9.826;2023-03-20T09:39:05;2.43;;;2.33;;
20140;SDS011;10231;47.702;9.826;2023-03-20T09:41:31;2.07;;;1.97;;
20140;SDS011;10231;47.702;9.826;2023-03-20T09:46:59;2.23;;;2.03;;
20140;SDS011;10231;47.702;9.826;2023-03-20T09:52:36;2.30;;;2.00;;
20140;SDS011;10231;47.702;9.826;2023-03-20T09:55:18;2.30;;;2.20;;
20140;SDS011;10231;47.702;9.826;2023-03-20T09:57:48;2.07;;;1.90;;
20140;SDS011;10231;47.702;9.826;2023-03-20T10:00:17;2.57;;;2.37;;
20140;SDS011;10231;47.702;9.826;2023-03-20T10:02:50;2.10;;;2.00;;
20140;SDS011;10231;47.702;9.826;2023-03-20T10:05:20;2.57;;;2.37;;
20140;SDS011;10231;47.702;9.826;2023-03-20T10:08:02;2.07;;;1.97;;
20140;SDS011;10231;47.702;9.826;2023-03-20T10:16:24;2.00;;;1.90;;
20140;SDS011;10231;47.702;9.826;2023-03-20T10:21:44;3.47;;;2.00;;
20140;SDS011;10231;47.702;9.826;2023-03-20T10:24:15;1.97;;;1.87;;
20140;SDS011;10231;47.702;9.826;2023-03-20T10:26:47;2.07;;;1.83;;
20140;SDS011;10231;47.702;9.826;2023-03-20T10:31:51;1.67;;;1.57;;
20140;SDS011;10231;47.702;9.826;2023-03-20T10:34:24;2.10;;;1.90;;
20140;SDS011;10231;47.702;9.826;2023-03-20T10:37:13;2.40;;;1.80;;
20140;SDS011;10231;47.702;9.826;2023-03-20T10:42:21;1.50;;;1.40;;
20140;SDS011;10231;47.702;9.826;2023-03-20T10:45:01;2.10;;;1.37;;
20140;SDS011;10231;47.702;9.826;2023-03-20T10:47:38;1.27;;;1.17;;
20140;SDS011;10231;47.702;9.826;2023-03-20T10:50:12;1.50;;;1.40;;
20140;SDS011;10231;47.702;9.826;2023-03-20T10:52:41;1.60;;;1.50;;
20140;SDS011;10231;47.702;9.826;2023-03-20T10:55:17;1.37;;;1.33;;
20140;SDS011;10231;47.702;9.826;2023-03-20T10:57:56;1.17;;;1.07;;
20140;SDS011;10231;47.702;9.826;2023-03-20T11:00:28;0.83;;;0.83;;
20140;SDS011;10231;47.702;9.826;2023-03-20T11:02:55;0.57;;;0.57;;
20140;SDS011;10231;47.702;9.826;2023-03-20T11:05:30;0.90;;;0.90;;
20140;SDS011;10231;47.702;9.826;2023-03-20T11:10:32;0.90;;;0.73;;
20140;SDS011;10231;47.702;9.826;2023-03-20T11:13:03;0.90;;;0.67;;
20140;SDS011;10231;47.702;9.826;2023-03-20T11:15:47;0.77;;;0.77;;
20140;SDS011;10231;47.702;9.826;2023-03-20T11:18:15;1.67;;;0.80;;
20140;SDS011;10231;47.702;9.826;2023-03-20T11:20:54;0.80;;;0.80;;
20140;SDS011;10231;47.702;9.826;2023-03-20T11:23:25;2.07;;;0.70;;
20140;SDS011;10231;47.702;9.826;2023-03-20T11:25:58;1.47;;;0.80;;
20140;SDS011;10231;47.702;9.826;2023-03-20T11:31:15;1.03;;;0.90;;
20140;SDS011;10231;47.702;9.826;2023-03-20T11:33:59;0.70;;;0.70;;
20140;SDS011;10231;47.702;9.826;2023-03-20T11:36:28;0.40;;;0.40;;
20140;SDS011;10231;47.702;9.826;2023-03-20T11:38:58;0.40;;;0.40;;
20140;SDS011;10231;47.702;9.826;2023-03-20T11:41:30;0.40;;;0.40;;
20140;SDS011;10231;47.702;9.826;2023-03-20T11:43:56;0.30;;;0.30;;
20140;SDS011;10231;47.702;9.826;2023-03-20T11:46:22;0.30;;;0.30;;
20140;SDS011;10231;47.702;9.826;2023-03-20T11:49:02;0.30;;;0.30;;
20140;SDS011;10231;47.702;9.826;2023-03-20T11:51:42;0.30;;;0.30;;
20140;SDS011;10231;47.702;9.826;2023-03-20T11:54:11;0.60;;;0.60;;
20140;SDS011;10231;47.702;9.826;2023-03-20T11:56:50;0.77;;;0.33;;
20140;SDS011;10231;47.702;9.826;2023-03-20T11:59:25;0.40;;;0.40;;
20140;SDS011;10231;47.702;9.826;2023-03-20T12:01:54;0.70;;;0.40;;
20140;SDS011;10231;47.702;9.826;2023-03-20T12:06:56;0.67;;;0.40;;
20140;SDS011;10231;47.702;9.826;2023-03-20T12:20:22;3.07;;;1.97;;
20140;SDS011;10231;47.702;9.826;2023-03-20T12:25:46;1.03;;;0.30;;
20140;SDS011;10231;47.702;9.826;2023-03-20T12:28:19;0.40;;;0.40;;
20140;SDS011;10231;47.702;9.826;2023-03-20T12:36:37;0.73;;;0.73;;
20140;SDS011;10231;47.702;9.826;2023-03-20T12:39:10;0.30;;;0.30;;
20140;SDS011;10231;47.702;9.826;2023-03-20T12:59:18;0.30;;;0.30;;
20140;SDS011;10231;47.702;9.826;2023-03-20T13:02:24;0.50;;;0.50;;
20140;SDS011;10231;47.702;9.826;2023-03-20T13:05:05;0.60;;;0.60;;
20140;SDS011;10231;47.702;9.826;2023-03-20T13:10:35;0.67;;;0.30;;
20140;SDS011;10231;47.702;9.826;2023-03-20T13:15:55;0.40;;;0.40;;
20140;SDS011;10231;47.702;9.826;2023-03-20T13:18:39;1.37;;;0.70;;
20140;SDS011;10231;47.702;9.826;2023-03-20T13:21:32;0.40;;;0.37;;
20140;SDS011;10231;47.702;9.826;2023-03-20T13:37:48;0.83;;;0.83;;
20140;SDS011;10231;47.702;9.826;2023-03-20T13:43:02;0.80;;;0.80;;
20140;SDS011;10231;47.702;9.826;2023-03-20T13:45:45;2.00;;;0.70;;
20140;SDS011;10231;47.702;9.826;2023-03-20T13:56:21;0.70;;;0.70;;
20140;SDS011;10231;47.702;9.826;2023-03-20T14:04:16;1.13;;;0.60;;
20140;SDS011;10231;47.702;9.826;2023-03-20T14:06:46;1.27;;;0.50;;
20140;SDS011;10231;47.702;9.826;2023-03-20T14:09:26;0.70;;;0.70;;
20140;SDS011;10231;47.702;9.826;2023-03-20T14:11:54;0.60;;;0.60;;
20140;SDS011;10231;47.702;9.826;2023-03-20T14:14:28;0.50;;;0.50;;
20140;SDS011;10231;47.702;9.826;2023-03-20T14:17:13;0.50;;;0.47;;
20140;SDS011;10231;47.702;9.826;2023-03-20T14:19:41;1.27;;;0.47;;
20140;SDS011;10231;47.702;9.826;2023-03-20T14:22:13;0.30;;;0.30;;
20140;SDS011;10231;47.702;9.826;2023-03-20T14:24:40;0.20;;;0.20;;
20140;SDS011;10231;47.702;9.826;2023-03-20T14:27:21;0.23;;;0.23;;
20140;SDS011;10231;47.702;9.826;2023-03-20T14:29:49;0.40;;;0.40;;
20140;SDS011;10231;47.702;9.826;2023-03-20T14:34:58;0.47;;;0.47;;
20140;SDS011;10231;47.702;9.826;2023-03-20T14:45:17;0.27;;;0.27;;
20140;SDS011;10231;47.702;9.826;2023-03-20T14:53:53;0.30;;;0.30;;
20140;SDS011;10231;47.702;9.826;2023-03-20T14:56:38;0.47;;;0.47;;
20140;SDS011;10231;47.702;9.826;2023-03-20T14:59:04;0.63;;;0.47;;
20140;SDS011;10231;47.702;9.826;2023-03-20T15:04:07;0.33;;;0.33;;
20140;SDS011;10231;47.702;9.826;2023-03-20T15:06:55;0.40;;;0.40;;
20140;SDS011;10231;47.702;9.826;2023-03-20T15:09:23;0.60;;;0.47;;
20140;SDS011;10231;47.702;9.826;2023-03-20T15:11:51;0.60;;;0.60;;
20140;SDS011;10231;47.702;9.826;2023-03-20T15:14:19;0.30;;;0.30;;
20140;SDS011;10231;47.702;9.826;2023-03-20T15:16:48;0.50;;;0.50;;
20140;SDS011;10231;47.702;9.826;2023-03-20T15:19:22;1.00;;;0.40;;
20140;SDS011;10231;47.702;9.826;2023-03-20T15:21:48;1.47;;;0.33;;
20140;SDS011;10231;47.702;9.826;2023-03-20T15:24:20;0.53;;;0.33;;
20140;SDS011;10231;47.702;9.826;2023-03-20T15:26:49;0.47;;;0.47;;
20140;SDS011;10231;47.702;9.826;2023-03-20T15:29:17;0.30;;;0.30;;
20140;SDS011;10231;47.702;9.826;2023-03-20T15:31:43;0.40;;;0.40;;
20140;SDS011;10231;47.702;9.826;2023-03-20T15:34:13;0.50;;;0.50;;
20140;SDS011;10231;47.702;9.826;2023-03-20T15:36:44;0.73;;;0.50;;
20140;SDS011;10231;47.702;9.826;2023-03-20T15:39:12;0.50;;;0.50;;
20140;SDS011;10231;47.702;9.826;2023-03-20T15:41:43;0.50;;;0.50;;
20140;SDS011;10231;47.702;9.826;2023-03-20T15:44:27;0.50;;;0.50;;
20140;SDS011;10231;47.702;9.826;2023-03-20T15:47:03;0.40;;;0.40;;
20140;SDS011;10231;47.702;9.826;2023-03-20T15:49:31;0.50;;;0.50;;
20140;SDS011;10231;47.702;9.826;2023-03-20T15:51:58;0.97;;;0.50;;
20140;SDS011;10231;47.702;9.826;2023-03-20T15:54:27;0.50;;;0.50;;
20140;SDS011;10231;47.702;9.826;2023-03-20T15:56:53;1.27;;;0.60;;
20140;SDS011;10231;47.702;9.826;2023-03-20T15:59:23;0.40;;;0.40;;
20140;SDS011;10231;47.702;9.826;2023-03-20T16:01:52;0.67;;;0.67;;
20140;SDS011;10231;47.702;9.826;2023-03-20T16:04:21;0.50;;;0.50;;
20140;SDS011;10231;47.702;9.826;2023-03-20T16:06:50;1.23;;;0.50;;
20140;SDS011;10231;47.702;9.826;2023-03-20T16:09:21;1.43;;;0.60;;
20140;SDS011;10231;47.702;9.826;2023-03-20T16:11:53;0.53;;;0.53;;
20140;SDS011;10231;47.702;9.826;2023-03-20T16:14:25;0.50;;;0.50;;
20140;SDS011;10231;47.702;9.826;2023-03-20T16:16:53;0.50;;;0.50;;
20140;SDS011;10231;47.702;9.826;2023-03-20T16:19:22;0.57;;;0.50;;
20140;SDS011;10231;47.702;9.826;2023-03-20T16:21:51;0.57;;;0.57;;
20140;SDS011;10231;47.702;9.826;2023-03-20T16:24:21;0.53;;;0.50;;
20140;SDS011;10231;47.702;9.826;2023-03-20T16:26:52;0.87;;;0.40;;
20140;SDS011;10231;47.702;9.826;2023-03-20T16:29:19;1.53;;;0.60;;
20140;SDS011;10231;47.702;9.826;2023-03-20T16:32:09;0.60;;;0.60;;
20140;SDS011;10231;47.702;9.826;2023-03-20T16:34:44;0.60;;;0.53;;
20140;SDS011;10231;47.702;9.826;2023-03-20T16:37:25;0.50;;;0.50;;
20140;SDS011;10231;47.702;9.826;2023-03-20T16:43:06;2.57;;;0.70;;
20140;SDS011;10231;47.702;9.826;2023-03-20T16:45:45;0.60;;;0.50;;
20140;SDS011;10231;47.702;9.826;2023-03-20T16:50:43;0.70;;;0.60;;
20140;SDS011;10231;47.702;9.826;2023-03-20T16:53:15;0.80;;;0.80;;
20140;SDS011;10231;47.702;9.826;2023-03-20T16:55:47;0.87;;;0.77;;
20140;SDS011;10231;47.702;9.826;2023-03-20T16:58:22;0.70;;;0.70;;
20140;SDS011;10231;47.702;9.826;2023-03-20T17:01:01;0.87;;;0.53;;
20140;SDS011;10231;47.702;9.826;2023-03-20T17:03:35;0.60;;;0.60;;
20140;SDS011;10231;47.702;9.826;2023-03-20T17:08:47;0.77;;;0.77;;
20140;SDS011;10231;47.702;9.826;2023-03-20T17:11:33;2.93;;;2.10;;
20140;SDS011;10231;47.702;9.826;2023-03-20T17:14:01;3.43;;;2.10;;
20140;SDS011;10231;47.702;9.826;2023-03-20T17:16:28;6.07;;;2.90;;
20140;SDS011;10231;47.702;9.826;2023-03-20T17:18:59;4.33;;;2.10;;
20140;SDS011;10231;47.702;9.826;2023-03-20T17:21:26;1.30;;;1.20;;
20140;SDS011;10231;47.702;9.826;2023-03-20T17:23:52;1.10;;;0.90;;
20140;SDS011;10231;47.702;9.826;2023-03-20T17:26:17;1.30;;;1.17;;
20140;SDS011;10231;47.702;9.826;2023-03-20T17:28:43;3.57;;;1.67;;
20140;SDS011;10231;47.702;9.826;2023-03-20T17:31:11;1.70;;;1.20;;
20140;SDS011;10231;47.702;9.826;2023-03-20T17:33:38;0.90;;;0.90;;
20140;SDS011;10231;47.702;9.826;2023-03-20T17:36:04;1.30;;;1.20;;
20140;SDS011;10231;47.702;9.826;2023-03-20T17:38:39;1.13;;;1.03;;
20140;SDS011;10231;47.702;9.826;2023-03-20T17:41:05;0.50;;;0.50;;
20140;SDS011;10231;47.702;9.826;2023-03-20T17:43:34;1.00;;;0.70;;
20140;SDS011;10231;47.702;9.826;2023-03-20T17:45:59;1.90;;;0.63;;
20140;SDS011;10231;47.702;9.826;2023-03-20T17:48:25;0.70;;;0.70;;
20140;SDS011;10231;47.702;9.826;2023-03-20T17:50:51;1.40;;;0.80;;
20140;SDS011;10231;47.702;9.826;2023-03-20T17:53:18;1.00;;;1.00;;
20140;SDS011;10231;47.702;9.826;2023-03-20T17:55:45;1.00;;;0.90;;